Time;durP1;ratioP1;P1;durP2;ratioP2;P2;SDS_P1;SDS_P2;PMS_P1;PMS_P2;Temp;Humidity;BMP_temperature;BMP_pressure;BME280_temperature;BME280_humidity;BME280_pressure;Samples;Min_cycle;Max_cycle;Signal;HPM_P1;HPM_P2
2024/01/13 00:02:29;;;;;;;16.00;7.50;;;;;;;-3.10;83.15;96898.11;108562;1275;24387;-75
2024/01/13 00:05:01;;;;;;;13.40;6.70;;;;;;;-3.10;83.06;96906.37;108553;1274;23371;-75
2024/01/13 00:07:38;;;;;;;8.30;4.40;;;;;;;-3.08;83.13;96899.42;108576;1275;23833;-75
2024/01/13 00:10:10;;;;;;;11.90;6.20;;;;;;;-3.05;83.29;96901.16;108558;1275;22730;-75
2024/01/13 00:12:41;;;;;;;14.30;6.90;;;;;;;-3.01;83.19;96905.02;108561;1275;23829;-75
2024/01/13 00:15:12;;;;;;;10.30;4.90;;;;;;;-3.01;83.10;96892.82;108609;1275;25755;-75
2024/01/13 00:17:43;;;;;;;11.30;5.90;;;;;;;-2.99;83.08;96890.90;108597;1268;22571;-75
2024/01/13 00:20:15;;;;;;;8.90;4.60;;;;;;;-2.99;83.20;96889.03;108590;1275;22652;-75
2024/01/13 00:22:47;;;;;;;9.50;5.00;;;;;;;-3.01;83.17;96888.35;108596;1275;24508;-75
2024/01/13 00:25:18;;;;;;;9.40;4.80;;;;;;;-3.00;83.17;96887.59;108616;1275;22559;-75
2024/01/13 00:27:49;;;;;;;10.80;5.60;;;;;;;-2.98;83.19;96889.27;108570;1270;24673;-75
2024/01/13 00:30:20;;;;;;;10.70;5.80;;;;;;;-2.97;83.30;96891.33;108608;1275;22531;-75
2024/01/13 00:32:52;;;;;;;12.70;6.20;;;;;;;-2.95;83.27;96886.20;108600;1275;22573;-75
2024/01/13 00:35:23;;;;;;;10.50;6.00;;;;;;;-2.95;83.45;96888.77;108574;1273;22945;-75
2024/01/13 00:37:54;;;;;;;8.80;4.40;;;;;;;-2.93;83.38;96888.15;108527;1260;24256;-75
2024/01/13 00:40:26;;;;;;;8.30;4.30;;;;;;;-2.91;83.24;96887.96;108681;1274;22528;-75
2024/01/13 00:42:59;;;;;;;12.40;6.10;;;;;;;-2.90;83.47;96879.02;108683;1273;22552;-75
2024/01/13 00:45:30;;;;;;;8.90;5.30;;;;;;;-2.90;83.49;96881.23;108657;1274;25412;-75
2024/01/13 00:48:02;;;;;;;8.90;4.70;;;;;;;-2.89;83.52;96880.70;108656;1271;25271;-75
2024/01/13 00:50:35;;;;;;;8.30;5.10;;;;;;;-2.87;83.48;96886.91;108567;1267;136574;-75
2024/01/13 00:53:08;;;;;;;7.80;4.40;;;;;;;-2.85;83.78;96882.73;108658;1274;22521;-75
2024/01/13 00:55:39;;;;;;;8.00;4.40;;;;;;;-2.84;83.77;96881.34;108660;1267;25324;-75
2024/01/13 00:58:11;;;;;;;11.10;4.80;;;;;;;-2.84;83.68;96883.34;108668;1273;22546;-75
2024/01/13 01:00:42;;;;;;;10.10;5.90;;;;;;;-2.83;83.76;96888.65;108645;1274;22536;-75
2024/01/13 01:03:13;;;;;;;9.00;4.90;;;;;;;-2.80;83.94;96884.44;108645;1274;22640;-75
2024/01/13 01:05:45;;;;;;;8.70;4.40;;;;;;;-2.77;84.21;96886.20;108673;1274;22631;-74
2024/01/13 01:08:16;;;;;;;8.10;5.00;;;;;;;-2.74;84.32;96886.27;108660;1273;24077;-75
2024/01/13 01:10:47;;;;;;;9.50;4.70;;;;;;;-2.73;84.23;96880.64;108707;1274;24433;-74
2024/01/13 01:13:18;;;;;;;8.20;4.60;;;;;;;-2.71;84.35;96878.53;108726;1267;22528;-75
2024/01/13 01:15:49;;;;;;;7.30;3.80;;;;;;;-2.70;84.37;96880.65;108671;1274;22541;-75
2024/01/13 01:18:20;;;;;;;9.80;5.50;;;;;;;-2.70;84.77;96882.49;108633;1274;22524;-75
2024/01/13 01:20:54;;;;;;;5.80;3.70;;;;;;;-2.71;84.67;96882.84;108665;1274;22524;-75
2024/01/13 01:23:25;;;;;;;11.70;4.40;;;;;;;-2.73;84.83;96873.05;108734;1267;22535;-75
2024/01/13 01:25:57;;;;;;;11.50;6.20;;;;;;;-2.74;84.92;96879.07;108649;1274;24738;-75
2024/01/13 01:28:28;;;;;;;9.90;5.60;;;;;;;-2.74;85.47;96876.28;108711;1269;22521;-75
2024/01/13 01:30:59;;;;;;;7.60;4.40;;;;;;;-2.74;85.38;96874.92;108684;1267;25433;-75
2024/01/13 01:33:29;;;;;;;10.40;5.10;;;;;;;-2.75;85.97;96873.52;108715;1274;25338;-75
2024/01/13 01:36:01;;;;;;;9.70;5.80;;;;;;;-2.77;86.08;96871.44;108700;1267;22535;-75
2024/01/13 01:38:32;;;;;;;10.00;5.00;;;;;;;-2.78;86.79;96864.52;108645;1267;22540;-75
2024/01/13 01:41:03;;;;;;;8.60;4.90;;;;;;;-2.81;87.27;96867.45;108700;1267;22531;-75
2024/01/13 01:43:34;;;;;;;8.00;3.80;;;;;;;-2.84;87.56;96873.33;108683;1274;22530;-75
2024/01/13 01:46:06;;;;;;;7.00;4.10;;;;;;;-2.86;88.13;96863.37;108631;1267;23328;-76
2024/01/13 01:48:39;;;;;;;7.40;3.80;;;;;;;-2.88;88.15;96869.50;108690;1267;22632;-75
2024/01/13 01:51:10;;;;;;;8.50;4.40;;;;;;;-2.88;88.21;96855.30;108733;1273;22556;-76
2024/01/13 01:53:42;;;;;;;8.60;5.10;;;;;;;-2.87;88.57;96851.79;108738;1260;24241;-75
2024/01/13 01:56:15;;;;;;;8.90;4.20;;;;;;;-2.89;88.70;96854.25;108803;1274;22611;-76
2024/01/13 01:58:47;;;;;;;6.80;3.50;;;;;;;-2.89;88.82;96851.98;108710;1266;22552;-76
2024/01/13 02:01:19;;;;;;;9.10;4.80;;;;;;;-2.89;89.40;96850.73;108714;1267;23058;-75
2024/01/13 02:03:52;;;;;;;7.10;3.40;;;;;;;-2.89;89.20;96857.16;108700;1274;24231;-75
2024/01/13 02:06:23;;;;;;;10.10;4.90;;;;;;;-2.90;89.35;96858.03;108652;1274;24490;-76
2024/01/13 02:08:55;;;;;;;8.20;4.50;;;;;;;-2.91;89.49;96846.26;108651;1267;23070;-75
2024/01/13 02:11:28;;;;;;;8.00;4.70;;;;;;;-2.93;89.92;96839.90;108736;1267;22528;-75
2024/01/13 02:14:00;;;;;;;8.50;4.40;;;;;;;-2.96;89.89;96839.61;108728;1274;22531;-75
2024/01/13 02:16:35;;;;;;;9.90;5.40;;;;;;;-2.98;89.85;96831.18;108649;1274;22570;-75
2024/01/13 02:19:09;;;;;;;8.80;5.00;;;;;;;-2.97;90.11;96830.48;108569;1274;23837;-75
2024/01/13 02:21:43;;;;;;;6.10;3.60;;;;;;;-2.97;90.25;96822.56;108644;1274;24225;-76
2024/01/13 02:24:14;;;;;;;6.50;3.40;;;;;;;-3.00;90.40;96822.00;108626;1274;22543;-75
2024/01/13 02:26:45;;;;;;;9.40;5.10;;;;;;;-2.99;90.74;96813.94;108631;1267;24273;-75
2024/01/13 02:29:19;;;;;;;7.70;3.80;;;;;;;-3.00;90.71;96815.93;108591;1273;24292;-75
2024/01/13 02:31:50;;;;;;;10.00;5.70;;;;;;;-2.98;91.10;96809.39;108634;1273;22560;-75
2024/01/13 02:34:21;;;;;;;9.20;4.60;;;;;;;-2.98;91.15;96808.52;108661;1267;22545;-76
2024/01/13 02:36:52;;;;;;;9.90;4.60;;;;;;;-2.98;91.74;96810.20;108652;1274;22530;-76
2024/01/13 02:39:25;;;;;;;10.40;5.20;;;;;;;-2.98;91.76;96806.80;108643;1274;41804;-76
2024/01/13 02:41:59;;;;;;;7.80;4.00;;;;;;;-2.98;91.83;96803.45;108708;1274;22539;-75
2024/01/13 02:44:32;;;;;;;7.90;4.70;;;;;;;-2.93;91.92;96806.94;108615;1274;22625;-75
2024/01/13 02:47:08;;;;;;;6.70;4.50;;;;;;;-2.93;91.97;96807.10;108595;1274;22520;-76
2024/01/13 02:49:42;;;;;;;5.70;4.00;;;;;;;-2.92;92.11;96807.86;108656;1274;22615;-75
2024/01/13 02:52:13;;;;;;;6.30;3.40;;;;;;;-2.91;92.24;96802.67;108674;1274;22539;-75
2024/01/13 02:54:44;;;;;;;6.30;3.90;;;;;;;-2.90;92.12;96800.29;108733;1274;22648;-75
2024/01/13 02:57:15;;;;;;;5.20;2.80;;;;;;;-2.89;92.07;96801.05;108690;1267;22551;-75
2024/01/13 02:59:54;;;;;;;9.10;4.50;;;;;;;-2.88;92.16;96789.16;108569;1267;22536;-75
2024/01/13 03:02:26;;;;;;;8.70;4.50;;;;;;;-2.88;92.56;96787.38;108636;1266;25441;-75
2024/01/13 03:04:58;;;;;;;5.90;2.90;;;;;;;-2.86;92.96;96789.02;108660;1274;22538;-75
2024/01/13 03:07:29;;;;;;;7.00;4.30;;;;;;;-2.86;93.12;96791.33;108643;1267;22531;-75
2024/01/13 03:10:03;;;;;;;6.50;3.60;;;;;;;-2.86;93.37;96792.29;108629;1274;22528;-75
2024/01/13 03:12:34;;;;;;;6.60;3.70;;;;;;;-2.85;93.53;96789.27;108630;1274;22527;-76
2024/01/13 03:15:09;;;;;;;6.20;3.60;;;;;;;-2.83;93.78;96787.27;108621;1273;22530;-76
2024/01/13 03:17:43;;;;;;;5.40;3.10;;;;;;;-2.83;93.96;96793.83;108661;1274;22550;-76
2024/01/13 03:20:14;;;;;;;10.00;5.00;;;;;;;-2.82;94.03;96792.39;108666;1274;22761;-75
2024/01/13 03:22:50;;;;;;;8.10;4.80;;;;;;;-2.82;94.49;96793.88;108667;1274;22668;-75
2024/01/13 03:25:20;;;;;;;6.30;3.20;;;;;;;-2.79;94.72;96786.93;108672;1274;22775;-75
2024/01/13 03:27:51;;;;;;;7.70;3.80;;;;;;;-2.79;94.70;96791.64;108693;1267;22547;-75
2024/01/13 03:30:22;;;;;;;6.10;3.40;;;;;;;-2.80;94.66;96784.49;108702;1274;22560;-75
2024/01/13 03:32:55;;;;;;;6.40;3.40;;;;;;;-2.79;94.65;96784.56;108669;1274;22552;-75
2024/01/13 03:35:28;;;;;;;6.90;3.10;;;;;;;-2.79;94.56;96777.47;108676;1274;22537;-75
2024/01/13 03:37:59;;;;;;;7.00;4.50;;;;;;;-2.78;94.61;96781.79;108609;1273;22634;-75
2024/01/13 03:40:30;;;;;;;4.00;2.80;;;;;;;-2.77;94.53;96779.83;108673;1267;22535;-75
2024/01/13 03:43:01;;;;;;;4.60;2.80;;;;;;;-2.75;94.73;96779.33;108683;1266;25827;-75
2024/01/13 03:45:32;;;;;;;3.50;2.50;;;;;;;-2.72;94.75;96775.50;108721;1274;22556;-75
2024/01/13 03:48:04;;;;;;;5.90;3.30;;;;;;;-2.69;95.02;96774.27;108594;1267;25418;-75
2024/01/13 03:50:35;;;;;;;7.70;4.00;;;;;;;-2.67;95.08;96777.02;108710;1270;22561;-75
2024/01/13 03:53:06;;;;;;;7.20;3.40;;;;;;;-2.66;95.01;96775.04;108651;1274;22547;-75
2024/01/13 03:55:37;;;;;;;9.50;3.50;;;;;;;-2.64;95.12;96768.50;108677;1267;23241;-75
2024/01/13 03:58:08;;;;;;;5.20;3.20;;;;;;;-2.62;95.37;96764.98;108651;1268;22530;-75
2024/01/13 04:00:39;;;;;;;6.90;3.60;;;;;;;-2.63;95.47;96771.09;108643;1274;22554;-75
2024/01/13 04:03:10;;;;;;;3.70;2.60;;;;;;;-2.60;95.65;96767.52;108608;1274;22582;-75
2024/01/13 04:05:41;;;;;;;9.50;4.00;;;;;;;-2.60;95.41;96766.39;108652;1274;22526;-75
2024/01/13 04:08:12;;;;;;;7.70;3.30;;;;;;;-2.59;95.24;96760.64;108642;1266;22556;-76
2024/01/13 04:10:43;;;;;;;6.50;3.30;;;;;;;-2.60;95.06;96759.17;108690;1267;22596;-76
2024/01/13 04:13:15;;;;;;;5.10;3.20;;;;;;;-2.59;95.08;96752.14;108701;1274;22527;-75
2024/01/13 04:15:46;;;;;;;5.30;2.80;;;;;;;-2.58;94.99;96755.78;108639;1268;22560;-76
2024/01/13 04:18:17;;;;;;;4.90;2.90;;;;;;;-2.58;94.95;96743.45;108628;1273;25450;-76
2024/01/13 04:20:48;;;;;;;4.50;3.00;;;;;;;-2.57;94.77;96746.88;108623;1267;22526;-75
2024/01/13 04:23:18;;;;;;;6.10;2.80;;;;;;;-2.57;94.89;96738.14;108633;1274;22542;-75
2024/01/13 04:25:50;;;;;;;4.20;2.70;;;;;;;-2.55;94.78;96739.70;108649;1274;25359;-75
2024/01/13 04:28:21;;;;;;;8.80;4.40;;;;;;;-2.56;94.56;96725.05;108684;1266;23756;-75
2024/01/13 04:30:52;;;;;;;6.30;3.30;;;;;;;-2.55;94.79;96726.88;108707;1274;22543;-75
2024/01/13 04:33:23;;;;;;;4.60;2.80;;;;;;;-2.55;94.43;96729.92;108674;1274;22547;-75
2024/01/13 04:35:54;;;;;;;5.90;3.50;;;;;;;-2.54;94.43;96733.48;108658;1274;23058;-75
2024/01/13 04:38:27;;;;;;;2.80;2.50;;;;;;;-2.52;94.16;96720.65;108623;1267;23135;-75
2024/01/13 04:40:58;;;;;;;3.90;2.70;;;;;;;-2.49;94.11;96730.88;108698;1274;24222;-75
2024/01/13 04:43:30;;;;;;;6.40;3.10;;;;;;;-2.47;94.00;96738.06;108683;1271;22559;-75
2024/01/13 04:46:02;;;;;;;4.40;2.70;;;;;;;-2.46;93.64;96732.61;108654;1274;25341;-76
2024/01/13 04:48:33;;;;;;;6.60;2.80;;;;;;;-2.44;93.62;96734.80;108676;1273;22542;-75
2024/01/13 04:51:04;;;;;;;4.20;2.70;;;;;;;-2.45;93.60;96728.30;108722;1273;23061;-75
2024/01/13 04:53:35;;;;;;;4.00;2.80;;;;;;;-2.44;93.53;96731.45;108688;1266;22534;-75
2024/01/13 04:56:07;;;;;;;4.40;2.60;;;;;;;-2.43;93.33;96735.69;108714;1273;22546;-76
2024/01/13 04:58:38;;;;;;;4.80;2.40;;;;;;;-2.42;93.13;96733.81;108663;1265;22531;-75
2024/01/13 05:01:09;;;;;;;6.40;3.80;;;;;;;-2.42;93.02;96732.23;108704;1273;22515;-75
2024/01/13 05:03:40;;;;;;;8.70;3.50;;;;;;;-2.41;92.94;96726.70;108687;1266;22524;-76
2024/01/13 05:06:11;;;;;;;5.80;4.00;;;;;;;-2.38;92.78;96722.15;108691;1273;22565;-75
2024/01/13 05:08:42;;;;;;;5.90;1.90;;;;;;;-2.38;92.78;96717.44;108667;1271;22536;-75
2024/01/13 05:11:13;;;;;;;7.30;3.20;;;;;;;-2.39;92.62;96717.62;108716;1266;22551;-75
2024/01/13 05:13:44;;;;;;;4.70;2.90;;;;;;;-2.41;92.62;96713.93;108710;1272;22547;-75
2024/01/13 05:16:15;;;;;;;4.80;3.10;;;;;;;-2.38;92.73;96718.52;108664;1273;22584;-76
2024/01/13 05:18:46;;;;;;;4.90;3.00;;;;;;;-2.40;92.73;96718.84;108679;1273;23000;-75
2024/01/13 05:21:17;;;;;;;4.00;2.60;;;;;;;-2.41;92.62;96711.92;108722;1273;22592;-76
2024/01/13 05:23:49;;;;;;;4.10;2.40;;;;;;;-2.43;92.77;96705.27;108590;1266;22580;-76
2024/01/13 05:26:20;;;;;;;7.10;3.40;;;;;;;-2.43;92.93;96710.77;108697;1270;22521;-76
2024/01/13 05:28:51;;;;;;;6.10;3.00;;;;;;;-2.42;93.21;96698.87;108610;1273;22557;-76
2024/01/13 05:31:22;;;;;;;5.60;2.90;;;;;;;-2.41;93.09;96703.30;108670;1266;22529;-75
2024/01/13 05:33:53;;;;;;;5.50;3.50;;;;;;;-2.42;93.02;96696.15;108720;1270;24270;-75
2024/01/13 05:36:24;;;;;;;5.60;3.40;;;;;;;-2.43;93.13;96687.40;108722;1273;22531;-75
2024/01/13 05:38:55;;;;;;;4.80;2.50;;;;;;;-2.40;93.19;96684.42;108602;1273;22527;-75
2024/01/13 05:41:26;;;;;;;3.50;2.40;;;;;;;-2.37;93.19;96686.80;108692;1273;22556;-75
2024/01/13 05:43:57;;;;;;;4.30;2.80;;;;;;;-2.39;92.79;96687.14;108688;1273;22546;-75
2024/01/13 05:46:28;;;;;;;6.80;3.60;;;;;;;-2.40;93.05;96690.13;108723;1273;25223;-75
2024/01/13 05:49:01;;;;;;;6.30;3.30;;;;;;;-2.39;92.98;96687.98;108671;1273;22752;-75
2024/01/13 05:51:33;;;;;;;6.40;3.20;;;;;;;-2.37;92.98;96689.88;108732;1273;24272;-75
2024/01/13 05:54:05;;;;;;;5.20;3.30;;;;;;;-2.36;92.98;96696.83;108691;1265;22531;-75
2024/01/13 05:56:36;;;;;;;5.70;2.90;;;;;;;-2.37;93.07;96700.91;108688;1273;22532;-75
2024/01/13 05:59:07;;;;;;;5.00;3.00;;;;;;;-2.37;93.00;96701.05;108672;1273;22541;-75
2024/01/13 06:01:38;;;;;;;4.20;2.60;;;;;;;-2.36;93.25;96700.46;108667;1273;22548;-75
2024/01/13 06:04:11;;;;;;;5.10;2.70;;;;;;;-2.32;93.11;96701.71;108693;1273;22530;-75
2024/01/13 06:06:44;;;;;;;3.90;2.40;;;;;;;-2.30;92.89;96703.87;108625;1273;22530;-75
2024/01/13 06:09:15;;;;;;;7.60;3.70;;;;;;;-2.31;92.82;96708.63;108664;1265;22606;-76
2024/01/13 06:11:48;;;;;;;6.30;2.60;;;;;;;-2.29;92.71;96715.77;108657;1273;22552;-75
2024/01/13 06:14:19;;;;;;;5.50;3.30;;;;;;;-2.28;92.78;96718.05;108692;1273;22528;-75
2024/01/13 06:16:50;;;;;;;3.90;2.50;;;;;;;-2.26;92.65;96717.02;108600;1273;22527;-76
2024/01/13 06:19:21;;;;;;;7.80;2.70;;;;;;;-2.25;92.59;96708.34;108668;1273;22536;-75
2024/01/13 06:21:53;;;;;;;5.40;3.60;;;;;;;-2.25;92.44;96707.64;108633;1273;22604;-75
2024/01/13 06:24:24;;;;;;;7.00;3.30;;;;;;;-2.24;92.28;96712.73;108676;1273;23507;-75
2024/01/13 06:26:55;;;;;;;5.10;2.90;;;;;;;-2.22;92.12;96712.78;108851;1270;22558;-76
2024/01/13 06:29:27;;;;;;;8.30;3.30;;;;;;;-2.18;91.85;96720.26;108785;1266;22527;-75
2024/01/13 06:31:59;;;;;;;4.60;3.00;;;;;;;-2.16;91.75;96718.34;108805;1273;22549;-76
2024/01/13 06:34:30;;;;;;;5.60;4.10;;;;;;;-2.16;91.65;96721.69;108700;1273;22560;-76
2024/01/13 06:37:01;;;;;;;6.20;3.10;;;;;;;-2.15;91.55;96717.98;108639;1272;25358;-75
2024/01/13 06:39:32;;;;;;;7.00;3.50;;;;;;;-2.14;91.42;96714.38;108618;1266;22530;-75
2024/01/13 06:42:06;;;;;;;5.70;2.50;;;;;;;-2.14;91.42;96714.70;108672;1273;22644;-74
2024/01/13 06:44:41;;;;;;;5.90;3.00;;;;;;;-2.13;91.26;96716.86;108675;1273;22608;-73
2024/01/13 06:47:12;;;;;;;7.50;3.30;;;;;;;-2.14;91.28;96711.55;108654;1265;22642;-74
2024/01/13 06:49:43;;;;;;;13.10;3.30;;;;;;;-2.13;91.43;96713.39;108601;1269;22521;-72
2024/01/13 06:52:14;;;;;;;9.10;3.90;;;;;;;-2.11;91.31;96704.10;108665;1266;24238;-73
2024/01/13 06:54:46;;;;;;;6.90;2.90;;;;;;;-2.08;91.23;96718.54;108630;1269;24488;-73
2024/01/13 06:57:17;;;;;;;6.30;3.30;;;;;;;-2.08;91.34;96706.73;108655;1273;22567;-74
2024/01/13 06:59:48;;;;;;;5.00;3.20;;;;;;;-2.11;91.38;96703.65;108628;1270;22534;-73
2024/01/13 07:02:19;;;;;;;5.30;3.30;;;;;;;-2.11;91.45;96703.30;108709;1266;22553;-73
2024/01/13 07:04:51;;;;;;;5.50;2.70;;;;;;;-2.08;91.26;96704.51;108721;1269;24466;-75
2024/01/13 07:07:22;;;;;;;4.40;2.50;;;;;;;-2.06;91.26;96709.17;108672;1265;22511;-75
2024/01/13 07:09:55;;;;;;;4.20;2.80;;;;;;;-2.06;91.32;96711.83;108622;1272;23338;-76
2024/01/13 07:12:26;;;;;;;5.00;3.00;;;;;;;-2.07;91.50;96710.74;108662;1269;22531;-75
2024/01/13 07:14:57;;;;;;;8.40;3.40;;;;;;;-2.08;91.42;96702.87;108700;1270;22538;-75
2024/01/13 07:17:28;;;;;;;3.60;2.50;;;;;;;-2.08;91.50;96709.14;108642;1273;22566;-76
2024/01/13 07:19:59;;;;;;;6.50;3.80;;;;;;;-2.08;91.66;96700.11;108651;1266;22645;-75
2024/01/13 07:22:30;;;;;;;6.20;3.50;;;;;;;-2.07;91.46;96703.70;108658;1273;22507;-76
2024/01/13 07:25:02;;;;;;;6.40;3.60;;;;;;;-2.07;91.77;96704.55;108644;1272;25252;-75
2024/01/13 07:27:33;;;;;;;7.30;3.70;;;;;;;-2.06;91.96;96697.63;108656;1270;23461;-75
2024/01/13 07:30:06;;;;;;;8.30;3.60;;;;;;;-2.06;91.86;96702.64;108707;1270;23830;-75
2024/01/13 07:32:37;;;;;;;6.40;3.50;;;;;;;-2.06;91.85;96701.98;108767;1273;22533;-75
2024/01/13 07:35:09;;;;;;;5.30;3.20;;;;;;;-2.06;91.66;96701.39;108739;1272;22550;-75
2024/01/13 07:37:40;;;;;;;6.80;3.00;;;;;;;-2.05;91.86;96696.20;108656;1273;22531;-75
2024/01/13 07:40:13;;;;;;;5.00;3.50;;;;;;;-2.04;91.76;96695.44;108522;1265;22538;-75
2024/01/13 07:42:44;;;;;;;4.80;3.00;;;;;;;-2.03;92.05;96702.31;108643;1266;26662;-75
2024/01/13 07:45:17;;;;;;;5.60;3.20;;;;;;;-2.03;92.08;96698.59;108664;1250;22534;-75
2024/01/13 07:47:49;;;;;;;4.10;3.40;;;;;;;-2.01;92.03;96704.95;108678;1273;22548;-74
2024/01/13 07:50:20;;;;;;;5.20;3.00;;;;;;;-1.99;92.07;96709.73;108627;1273;25303;-75
2024/01/13 07:52:51;;;;;;;6.20;3.10;;;;;;;-1.98;92.03;96708.75;108624;1273;25430;-76
2024/01/13 07:55:22;;;;;;;5.50;3.10;;;;;;;-1.98;91.79;96709.71;108655;1266;22598;-76
2024/01/13 07:57:54;;;;;;;4.70;2.90;;;;;;;-1.97;91.93;96708.00;108683;1272;22534;-75
2024/01/13 08:00:27;;;;;;;8.50;3.10;;;;;;;-1.95;92.02;96712.34;108621;1266;22523;-75
2024/01/13 08:02:58;;;;;;;4.70;3.20;;;;;;;-1.96;91.87;96703.41;108693;1269;23014;-75
2024/01/13 08:05:31;;;;;;;3.80;2.10;;;;;;;-1.96;92.07;96711.86;108667;1266;22531;-75
2024/01/13 08:08:02;;;;;;;3.90;2.20;;;;;;;-1.95;92.16;96715.21;108625;1273;23649;-75
2024/01/13 08:10:36;;;;;;;6.70;3.60;;;;;;;-1.93;91.88;96711.90;108644;1273;22514;-75
2024/01/13 08:13:08;;;;;;;2.50;1.70;;;;;;;-1.93;92.15;96714.41;108691;1273;22531;-75
2024/01/13 08:15:43;;;;;;;48.30;25.20;;;;;;;-1.93;92.09;96709.98;108669;1266;25493;-76
2024/01/13 08:18:17;;;;;;;5.30;3.30;;;;;;;-1.93;92.09;96714.14;108623;1272;22524;-75
2024/01/13 08:20:48;;;;;;;7.30;4.50;;;;;;;-1.92;92.40;96708.86;108642;1266;22529;-75
2024/01/13 08:23:20;;;;;;;4.80;2.50;;;;;;;-1.92;92.19;96710.86;108636;1273;22572;-75
2024/01/13 08:25:51;;;;;;;6.10;3.20;;;;;;;-1.93;92.00;96705.89;108675;1272;22572;-75
2024/01/13 08:28:22;;;;;;;7.60;3.10;;;;;;;-1.92;92.24;96697.06;108683;1266;24196;-75
2024/01/13 08:30:53;;;;;;;4.30;2.60;;;;;;;-1.93;92.25;96700.59;108596;1273;22528;-75
2024/01/13 08:33:24;;;;;;;8.30;4.40;;;;;;;-1.93;92.39;96688.43;108652;1273;22611;-75
2024/01/13 08:35:55;;;;;;;6.30;3.30;;;;;;;-1.92;92.45;96686.91;108705;1266;22521;-75
2024/01/13 08:38:26;;;;;;;5.30;3.30;;;;;;;-1.91;92.41;96686.80;108610;1273;22590;-76
2024/01/13 08:40:57;;;;;;;7.90;4.00;;;;;;;-1.90;92.59;96692.80;108638;1265;22555;-75
2024/01/13 08:43:29;;;;;;;8.00;4.40;;;;;;;-1.89;92.29;96687.59;108557;1266;23984;-76
2024/01/13 08:46:04;;;;;;;6.00;3.60;;;;;;;-1.88;92.29;96681.08;108681;1266;22542;-77
2024/01/13 08:48:36;;;;;;;5.00;3.40;;;;;;;-1.87;92.36;96687.27;108764;1265;22519;-77
2024/01/13 08:51:08;;;;;;;6.80;4.50;;;;;;;-1.86;92.38;96680.64;108767;1266;22523;-76
2024/01/13 08:53:41;;;;;;;7.40;4.60;;;;;;;-1.84;92.13;96677.77;108819;1265;22537;-76
2024/01/13 08:56:15;;;;;;;6.80;3.80;;;;;;;-1.82;91.97;96677.47;108811;1272;22553;-77
2024/01/13 08:58:46;;;;;;;7.10;4.20;;;;;;;-1.80;91.82;96672.27;108739;1266;22745;-76
2024/01/13 09:01:19;;;;;;;5.70;3.70;;;;;;;-1.79;91.81;96681.98;108816;1266;25278;-76
2024/01/13 09:03:52;;;;;;;7.10;4.40;;;;;;;-1.77;91.42;96674.34;108768;1266;22524;-77
2024/01/13 09:06:23;;;;;;;6.90;3.90;;;;;;;-1.76;91.39;96678.05;108817;1272;22555;-76
2024/01/13 09:08:54;;;;;;;9.50;4.90;;;;;;;-1.75;91.48;96688.49;108802;1266;25491;-76
2024/01/13 09:11:27;;;;;;;6.70;4.90;;;;;;;-1.75;91.23;96678.70;108844;1266;22525;-77
2024/01/13 09:14:00;;;;;;;7.50;4.20;;;;;;;-1.74;91.35;96687.45;108692;1272;22551;-76
2024/01/13 09:16:31;;;;;;;7.10;4.70;;;;;;;-1.73;91.16;96673.29;108580;1266;22525;-76
2024/01/13 09:19:03;;;;;;;5.40;3.70;;;;;;;-1.72;90.73;96677.05;108671;1266;22513;-76
2024/01/13 09:21:34;;;;;;;7.00;4.40;;;;;;;-1.70;91.04;96679.13;108671;1266;22520;-76
2024/01/13 09:24:06;;;;;;;6.50;3.90;;;;;;;-1.69;90.65;96671.67;108715;1272;22531;-76
2024/01/13 09:26:42;;;;;;;8.00;4.80;;;;;;;-1.67;90.53;96664.20;108686;1265;22554;-76
2024/01/13 09:29:16;;;;;;;9.50;4.20;;;;;;;-1.65;90.36;96668.04;108749;1272;22683;-76
2024/01/13 09:31:47;;;;;;;9.00;5.60;;;;;;;-1.62;90.39;96659.75;108711;1272;22527;-76
2024/01/13 09:34:20;;;;;;;9.90;6.10;;;;;;;-1.61;90.29;96649.88;108744;1266;22781;-76
2024/01/13 09:36:51;;;;;;;8.20;5.10;;;;;;;-1.61;90.12;96648.08;108695;1266;26454;-76
2024/01/13 09:39:22;;;;;;;7.20;4.40;;;;;;;-1.60;89.89;96652.84;108658;1266;25228;-77
2024/01/13 09:41:59;;;;;;;8.10;4.30;;;;;;;-1.60;89.95;96643.52;108817;1266;22538;-75
2024/01/13 09:44:34;;;;;;;10.10;6.00;;;;;;;-1.60;89.97;96645.15;108788;1272;22540;-75
2024/01/13 09:47:06;;;;;;;7.40;3.30;;;;;;;-1.58;89.62;96640.95;108811;1266;22529;-74
2024/01/13 09:49:37;;;;;;;8.90;4.50;;;;;;;-1.57;89.46;96644.42;108720;1272;22584;-75
2024/01/13 09:52:10;;;;;;;6.00;3.60;;;;;;;-1.56;89.73;96637.23;108817;1270;22574;-76
2024/01/13 09:54:48;;;;;;;7.50;4.20;;;;;;;-1.55;89.75;96639.16;108836;1272;22542;-76
2024/01/13 09:57:20;;;;;;;8.40;4.60;;;;;;;-1.55;89.32;96636.52;108846;1266;26759;-76
2024/01/13 09:59:56;;;;;;;8.30;4.70;;;;;;;-1.53;89.67;96627.13;108790;1266;55058;-76
2024/01/13 10:02:33;;;;;;;7.70;5.10;;;;;;;-1.52;89.35;96623.77;108859;1272;22519;-77
2024/01/13 10:05:06;;;;;;;5.50;3.30;;;;;;;-1.52;89.03;96619.41;108808;1266;22544;-77
2024/01/13 10:07:46;;;;;;;6.00;3.20;;;;;;;-1.52;89.09;96614.89;108823;1266;22950;-76
2024/01/13 10:10:25;;;;;;;7.80;3.90;;;;;;;-1.51;89.07;96615.09;108729;1266;22531;-76
2024/01/13 10:13:04;;;;;;;7.60;3.60;;;;;;;-1.50;89.29;96613.52;108786;1266;22527;-76
2024/01/13 10:15:37;;;;;;;6.00;3.60;;;;;;;-1.48;89.01;96612.36;108815;1273;22858;-76
2024/01/13 10:18:12;;;;;;;6.00;3.60;;;;;;;-1.48;88.96;96602.60;108715;1273;45781;-76
2024/01/13 10:20:46;;;;;;;8.60;5.20;;;;;;;-1.49;88.63;96590.77;108790;1270;22570;-76
2024/01/13 10:23:22;;;;;;;6.60;3.80;;;;;;;-1.50;88.45;96607.29;108783;1269;22543;-76
2024/01/13 10:25:54;;;;;;;6.80;4.10;;;;;;;-1.49;88.39;96607.55;108737;1271;22531;-76
2024/01/13 10:28:29;;;;;;;8.20;4.60;;;;;;;-1.49;88.45;96595.80;108744;1273;22527;-76
2024/01/13 10:31:03;;;;;;;7.40;4.10;;;;;;;-1.49;88.39;96601.48;108741;1266;22543;-75
2024/01/13 10:33:34;;;;;;;6.30;3.40;;;;;;;-1.48;88.34;96601.88;108667;1273;22540;-75
2024/01/13 10:36:07;;;;;;;8.70;4.60;;;;;;;-1.48;88.19;96593.40;108637;1267;22545;-75
2024/01/13 10:38:39;;;;;;;8.70;4.60;;;;;;;-1.49;88.36;96597.64;108647;1273;22538;-76
2024/01/13 10:41:13;;;;;;;6.70;3.90;;;;;;;-1.47;88.24;96587.55;108697;1269;22530;-76
2024/01/13 10:43:45;;;;;;;7.00;4.60;;;;;;;-1.47;88.45;96590.31;108787;1272;26921;-76
2024/01/13 10:46:26;;;;;;;7.90;4.80;;;;;;;-1.47;88.38;96590.32;108691;1273;22524;-77
2024/01/13 10:49:03;;;;;;;5.80;3.40;;;;;;;-1.46;88.34;96588.23;108635;1265;24249;-77
2024/01/13 10:51:36;;;;;;;8.50;4.00;;;;;;;-1.43;88.24;96576.18;108675;1271;22606;-76
2024/01/13 10:54:10;;;;;;;7.00;3.40;;;;;;;-1.42;88.00;96575.89;108710;1272;22755;-77
2024/01/13 10:56:42;;;;;;;5.90;3.60;;;;;;;-1.43;88.01;96575.90;108740;1272;22555;-75
2024/01/13 10:59:14;;;;;;;9.30;4.40;;;;;;;-1.42;87.94;96575.58;108663;1273;24186;-77
2024/01/13 11:01:50;;;;;;;6.90;3.80;;;;;;;-1.42;87.56;96566.41;108759;1271;22545;-75
2024/01/13 11:04:23;;;;;;;8.10;4.10;;;;;;;-1.43;87.74;96576.73;108854;1273;22567;-76
2024/01/13 11:06:54;;;;;;;9.00;4.20;;;;;;;-1.42;87.88;96575.10;108801;1266;22531;-76
2024/01/13 11:09:27;;;;;;;8.50;4.00;;;;;;;-1.42;87.60;96567.65;108666;1270;22741;-76
2024/01/13 11:12:10;;;;;;;4.40;3.30;;;;;;;-1.42;87.70;96564.33;108730;1266;22553;-77
2024/01/13 11:14:55;;;;;;;7.50;3.80;;;;;;;-1.41;87.34;96558.85;108639;1266;22526;-77
2024/01/13 11:17:27;;;;;;;4.30;3.00;;;;;;;-1.42;87.14;96559.29;108664;1270;22575;-76
2024/01/13 11:20:03;;;;;;;6.20;3.20;;;;;;;-1.42;87.34;96557.02;108613;1271;22655;-76
2024/01/13 11:22:39;;;;;;;9.40;4.40;;;;;;;-1.41;87.43;96554.14;108729;1262;22547;-76
2024/01/13 11:25:25;;;;;;;10.30;3.00;;;;;;;-1.41;87.49;96550.49;108665;1273;25434;-76
2024/01/13 11:27:59;;;;;;;4.40;3.90;;;;;;;-1.41;87.17;96541.38;108755;1267;22660;-76
2024/01/13 11:30:48;;;;;;;14.00;5.90;;;;;;;-1.42;87.23;96537.94;108677;1273;22535;-76
2024/01/13 11:33:25;;;;;;;8.80;3.60;;;;;;;-1.39;87.34;96527.23;108661;1272;22485;-76
2024/01/13 11:35:56;;;;;;;8.90;4.60;;;;;;;-1.40;87.33;96531.51;108632;1273;25419;-77
2024/01/13 11:38:31;;;;;;;9.10;4.20;;;;;;;-1.39;87.40;96532.19;108639;1266;24189;-76
2024/01/13 11:41:04;;;;;;;8.10;4.90;;;;;;;-1.39;87.39;96533.44;108682;1273;24255;-77
2024/01/13 11:43:45;;;;;;;10.10;5.70;;;;;;;-1.39;87.34;96522.55;108753;1273;22558;-76
2024/01/13 11:46:17;;;;;;;13.20;6.00;;;;;;;-1.40;87.37;96527.80;108795;1273;25447;-76
2024/01/13 11:48:50;;;;;;;6.50;3.30;;;;;;;-1.41;87.02;96511.94;108682;1270;23849;-76